Time,TemperatureF,DewpointF,PressureIn,WindDirection,WindDirectionDegrees,WindSpeedMPH,WindSpeedGustMPH,Humidity,HourlyPrecipIn,Conditions,Clouds,dailyrainin,SoftwareType,DateUTC
2013-05-30 00:01:00,54.0,37.0,-100.00,SW,222,2.0,6.0,52,0.00,,,-99.99,,2013-05-30 06:01:00,
2013-05-30 00:12:00,54.0,36.0,-100.00,WSW,248,4.0,7.0,52,0.00,,,-99.99,,2013-05-30 06:12:00,
2013-05-30 00:21:00,54.0,36.0,-100.00,SW,223,5.0,10.0,52,0.00,,,-99.99,,2013-05-30 06:21:00,
2013-05-30 00:32:00,54.0,36.0,-100.00,SW,223,5.0,10.0,52,0.00,,,-99.99,,2013-05-30 06:32:00,
2013-05-30 00:42:00,53.0,36.0,-100.00,WSW,240,5.0,8.0,51,0.00,,,-99.99,,2013-05-30 06:42:00,
2013-05-30 00:52:00,53.0,36.0,-100.00,WSW,246,4.0,10.0,53,0.00,,,-99.99,,2013-05-30 06:52:00,
2013-05-30 01:01:00,53.0,36.0,-100.00,WSW,246,4.0,10.0,53,0.00,,,-99.99,,2013-05-30 07:01:00,
2013-05-30 01:12:00,53.0,35.0,-100.00,WSW,257,4.0,6.0,52,0.00,,,-99.99,,2013-05-30 07:12:00,
2013-05-30 01:21:00,53.0,35.0,-100.00,WSW,256,6.0,11.0,52,0.00,,,-99.99,,2013-05-30 07:21:00,
2013-05-30 01:31:00,53.0,35.0,-100.00,WSW,256,6.0,11.0,52,0.00,,,-99.99,,2013-05-30 07:31:00,
2013-05-30 01:42:00,53.0,35.0,-100.00,WSW,256,6.0,11.0,52,0.00,,,-99.99,,2013-05-30 07:42:00,
2013-05-30 01:52:00,52.0,35.0,-100.00,WSW,244,6.0,10.0,51,0.00,,,-99.99,,2013-05-30 07:52:00,
2013-05-30 02:01:00,52.0,35.0,-100.00,WSW,244,6.0,10.0,51,0.00,,,-99.99,,2013-05-30 08:01:00,
2013-05-30 02:11:00,52.0,35.0,-100.00,West,271,4.0,7.0,53,0.00,,,-99.99,,2013-05-30 08:11:00,
2013-05-30 02:21:00,51.0,35.0,-100.00,WSW,256,6.0,9.0,53,0.00,,,-99.99,,2013-05-30 08:21:00,
2013-05-30 02:31:00,51.0,35.0,-100.00,WSW,256,6.0,9.0,53,0.00,,,-99.99,,2013-05-30 08:31:00,
2013-05-30 02:42:00,51.0,35.0,-100.00,WSW,256,3.0,6.0,54,0.00,,,-99.99,,2013-05-30 08:42:00,
2013-05-30 02:53:00,50.0,35.0,-100.00,WSW,257,4.0,11.0,56,0.00,,,-99.99,,2013-05-30 08:53:00,
2013-05-30 03:01:00,50.0,35.0,-100.00,WSW,257,4.0,11.0,56,0.00,,,-99.99,,2013-05-30 09:01:00,
2013-05-30 03:11:00,50.0,35.0,-100.00,WSW,257,4.0,11.0,56,0.00,,,-99.99,,2013-05-30 09:11:00,
2013-05-30 03:21:00,49.0,35.0,-100.00,West,275,7.0,12.0,59,0.00,,,-99.99,,2013-05-30 09:21:00,
2013-05-30 03:32:00,49.0,35.0,-100.00,West,275,7.0,12.0,59,0.00,,,-99.99,,2013-05-30 09:32:00,
2013-05-30 03:43:00,49.0,35.0,-100.00,West,277,9.0,13.0,60,0.00,,,-99.99,,2013-05-30 09:43:00,
2013-05-30 03:53:00,49.0,35.0,-100.00,West,277,9.0,13.0,60,0.00,,,-99.99,,2013-05-30 09:53:00,
2013-05-30 04:02:00,49.0,35.0,-100.00,West,277,9.0,13.0,60,0.00,,,-99.99,,2013-05-30 10:02:00,
2013-05-30 04:12:00,48.0,36.0,-100.00,WSW,258,7.0,14.0,62,0.00,,,-99.99,,2013-05-30 10:12:00,
2013-05-30 04:22:00,47.0,36.0,-100.00,WSW,248,4.0,10.0,64,0.00,,,-99.99,,2013-05-30 10:22:00,
2013-05-30 04:32:00,47.0,36.0,-100.00,WSW,248,4.0,10.0,64,0.00,,,-99.99,,2013-05-30 10:32:00,
2013-05-30 04:42:00,47.0,36.0,-100.00,WSW,257,5.0,7.0,65,0.00,,,-99.99,,2013-05-30 10:42:00,
2013-05-30 04:52:00,47.0,36.0,-100.00,SW,227,4.0,7.0,66,0.00,,,-99.99,,2013-05-30 10:52:00,
2013-05-30 05:03:00,47.0,36.0,-100.00,SW,227,4.0,7.0,66,0.00,,,-99.99,,2013-05-30 11:03:00,
2013-05-30 05:12:00,46.0,36.0,-100.00,WSW,241,4.0,7.0,67,0.00,,,-99.99,,2013-05-30 11:12:00,
2013-05-30 05:21:00,46.0,37.0,-100.00,SW,215,3.0,6.0,69,0.00,,,-99.99,,2013-05-30 11:21:00,
2013-05-30 05:32:00,46.0,37.0,-100.00,SW,215,3.0,6.0,69,0.00,,,-99.99,,2013-05-30 11:32:00,
2013-05-30 05:42:00,46.0,37.0,-100.00,WSW,258,4.0,8.0,71,0.00,,,-99.99,,2013-05-30 11:42:00,
2013-05-30 05:52:00,46.0,37.0,-100.00,WSW,257,5.0,10.0,72,0.00,,,-99.99,,2013-05-30 11:52:00,
2013-05-30 06:01:00,46.0,37.0,-100.00,WSW,257,5.0,10.0,72,0.00,,,-99.99,,2013-05-30 12:01:00,
2013-05-30 06:11:00,46.0,38.0,-100.00,WSW,257,7.0,10.0,73,0.00,,,-99.99,,2013-05-30 12:11:00,
2013-05-30 06:22:00,46.0,38.0,-100.00,WSW,257,7.0,10.0,73,0.00,,,-99.99,,2013-05-30 12:22:00,
2013-05-30 06:32:00,46.0,38.0,-100.00,WSW,257,7.0,10.0,73,0.00,,,-99.99,,2013-05-30 12:32:00,
2013-05-30 06:42:00,46.0,38.0,-100.00,ESE,106,2.0,4.0,74,0.00,,,-99.99,,2013-05-30 12:42:00,
2013-05-30 06:52:00,46.0,38.0,-100.00,NE,45,6.0,8.0,74,0.00,,,-99.99,,2013-05-30 12:52:00,
2013-05-30 07:01:00,46.0,38.0,-100.00,NE,45,6.0,8.0,74,0.00,,,-99.99,,2013-05-30 13:01:00,
2013-05-30 07:11:00,46.0,38.0,-100.00,South,189,0.0,1.0,74,0.00,,,-99.99,,2013-05-30 13:11:00,
2013-05-30 07:22:00,46.0,39.0,-100.00,South,184,3.0,6.0,75,0.00,,,-99.99,,2013-05-30 13:22:00,
2013-05-30 07:32:00,46.0,39.0,-100.00,South,184,3.0,6.0,75,0.00,,,-99.99,,2013-05-30 13:32:00,
2013-05-30 07:41:00,46.0,39.0,-100.00,South,184,3.0,6.0,75,0.00,,,-99.99,,2013-05-30 13:41:00,
2013-05-30 07:52:00,46.0,39.0,-100.00,SE,134,2.0,3.0,77,0.00,,,-99.99,,2013-05-30 13:52:00,
2013-05-30 08:01:00,46.0,39.0,-100.00,SE,134,2.0,3.0,77,0.00,,,-99.99,,2013-05-30 14:01:00,
2013-05-30 08:11:00,47.0,39.0,-100.00,NW,313,6.0,8.0,74,0.00,,,-99.99,,2013-05-30 14:11:00,
2013-05-30 08:21:00,47.0,39.0,-100.00,NW,313,6.0,8.0,74,0.00,,,-99.99,,2013-05-30 14:21:00,
2013-05-30 08:32:00,47.0,39.0,-100.00,NW,313,6.0,8.0,74,0.00,,,-99.99,,2013-05-30 14:32:00,
2013-05-30 08:42:00,48.0,40.0,-100.00,WNW,285,4.0,7.0,73,0.00,,,-99.99,,2013-05-30 14:42:00,
2013-05-30 08:52:00,50.0,40.0,-100.00,WSW,254,4.0,8.0,70,0.00,,,-99.99,,2013-05-30 14:52:00,
2013-05-30 09:01:00,50.0,40.0,-100.00,WSW,254,4.0,8.0,70,0.00,,,-99.99,,2013-05-30 15:01:00,
2013-05-30 09:11:00,50.0,40.0,-100.00,WSW,254,4.0,8.0,70,0.00,,,-99.99,,2013-05-30 15:11:00,
2013-05-30 09:22:00,51.0,40.0,-100.00,West,274,5.0,11.0,66,0.00,,,-99.99,,2013-05-30 15:22:00,
2013-05-30 09:33:00,51.0,40.0,-100.00,West,274,5.0,11.0,66,0.00,,,-99.99,,2013-05-30 15:33:00,
2013-05-30 09:42:00,51.0,40.0,-100.00,West,274,5.0,11.0,66,0.00,,,-99.99,,2013-05-30 15:42:00,
2013-05-30 10:53:00,55.0,38.0,-100.00,West,274,11.0,17.0,53,0.00,,,-99.99,,2013-05-30 16:53:00,
2013-05-30 11:02:00,55.0,38.0,-100.00,West,274,11.0,17.0,53,0.00,,,-99.99,,2013-05-30 17:02:00,
2013-05-30 11:11:00,55.0,38.0,-100.00,West,274,11.0,17.0,53,0.00,,,-99.99,,2013-05-30 17:11:00,
2013-05-30 11:22:00,56.0,41.0,-100.00,West,263,7.0,12.0,57,0.00,,,-99.99,,2013-05-30 17:22:00,
2013-05-30 11:32:00,56.0,41.0,-100.00,West,263,7.0,12.0,57,0.00,,,-99.99,,2013-05-30 17:32:00,
2013-05-30 11:42:00,55.0,39.0,-100.00,West,275,7.0,11.0,55,0.00,,,-99.99,,2013-05-30 17:42:00,
2013-05-30 11:52:00,56.0,40.0,-100.00,WNW,284,8.0,12.0,56,0.00,,,-99.99,,2013-05-30 17:52:00,
2013-05-30 12:02:00,56.0,40.0,-100.00,WNW,284,8.0,12.0,56,0.00,,,-99.99,,2013-05-30 18:02:00,
2013-05-30 12:11:00,56.0,40.0,-100.00,WNW,284,8.0,12.0,56,0.00,,,-99.99,,2013-05-30 18:11:00,
2013-05-30 12:21:00,56.0,40.0,-100.00,WNW,301,8.0,13.0,53,0.00,,,-99.99,,2013-05-30 18:21:00,
2013-05-30 12:32:00,56.0,40.0,-100.00,WNW,301,8.0,13.0,53,0.00,,,-99.99,,2013-05-30 18:32:00,
2013-05-30 12:42:00,56.0,37.0,-100.00,West,280,7.0,17.0,49,0.00,,,-99.99,,2013-05-30 18:42:00,
2013-05-30 12:52:00,57.0,36.0,-100.00,West,277,9.0,13.0,45,0.00,,,-99.99,,2013-05-30 18:52:00,
2013-05-30 13:01:00,57.0,36.0,-100.00,West,277,9.0,13.0,45,0.00,,,-99.99,,2013-05-30 19:01:00,
2013-05-30 13:11:00,59.0,35.0,-100.00,West,272,9.0,18.0,41,0.00,,,-99.99,,2013-05-30 19:11:00,
2013-05-30 13:22:00,59.0,35.0,-100.00,West,272,9.0,18.0,41,0.00,,,-99.99,,2013-05-30 19:22:00,
2013-05-30 13:32:00,59.0,35.0,-100.00,West,272,9.0,18.0,41,0.00,,,-99.99,,2013-05-30 19:32:00,
2013-05-30 13:42:00,60.0,37.0,-100.00,WNW,285,7.0,11.0,42,0.00,,,-99.99,,2013-05-30 19:42:00,
2013-05-30 13:52:00,61.0,31.0,-100.00,West,267,10.0,19.0,33,0.00,,,-99.99,,2013-05-30 19:52:00,
2013-05-30 14:01:00,61.0,31.0,-100.00,West,267,10.0,19.0,33,0.00,,,-99.99,,2013-05-30 20:01:00,
2013-05-30 14:11:00,60.0,31.0,-100.00,West,275,10.0,16.0,34,0.00,,,-99.99,,2013-05-30 20:11:00,
2013-05-30 14:22:00,60.0,31.0,-100.00,West,275,10.0,16.0,34,0.00,,,-99.99,,2013-05-30 20:22:00,
2013-05-30 14:33:00,60.0,31.0,-100.00,West,275,10.0,16.0,34,0.00,,,-99.99,,2013-05-30 20:33:00,
2013-05-30 14:41:00,62.0,32.0,-100.00,West,271,9.0,17.0,32,0.00,,,-99.99,,2013-05-30 20:41:00,
2013-05-30 14:52:00,62.0,32.0,-100.00,West,275,7.0,15.0,31,0.00,,,-99.99,,2013-05-30 20:52:00,
2013-05-30 15:01:00,62.0,32.0,-100.00,West,275,7.0,15.0,31,0.00,,,-99.99,,2013-05-30 21:01:00,
2013-05-30 15:11:00,62.0,32.0,-100.00,West,275,7.0,15.0,31,0.00,,,-99.99,,2013-05-30 21:11:00,
2013-05-30 15:22:00,63.0,31.0,-100.00,WNW,291,12.0,22.0,30,0.00,,,-99.99,,2013-05-30 21:22:00,
2013-05-30 15:33:00,63.0,31.0,-100.00,WNW,291,12.0,22.0,30,0.00,,,-99.99,,2013-05-30 21:33:00,
2013-05-30 15:43:00,63.0,32.0,-100.00,WNW,288,10.0,17.0,31,0.00,,,-99.99,,2013-05-30 21:43:00,
2013-05-30 15:53:00,62.0,31.0,-100.00,West,281,13.0,20.0,31,0.00,,,-99.99,,2013-05-30 21:53:00,
2013-05-30 16:02:00,62.0,31.0,-100.00,West,281,13.0,20.0,31,0.00,,,-99.99,,2013-05-30 22:02:00,
2013-05-30 16:12:00,63.0,31.0,-100.00,West,271,10.0,19.0,29,0.00,,,-99.99,,2013-05-30 22:12:00,
2013-05-30 16:22:00,63.0,31.0,-100.00,West,271,10.0,19.0,29,0.00,,,-99.99,,2013-05-30 22:22:00,
2013-05-30 16:32:00,63.0,31.0,-100.00,West,271,10.0,19.0,29,0.00,,,-99.99,,2013-05-30 22:32:00,
2013-05-30 16:42:00,64.0,31.0,-100.00,WNW,285,9.0,18.0,28,0.00,,,-99.99,,2013-05-30 22:42:00,
2013-05-30 16:52:00,63.0,29.0,-100.00,West,278,11.0,19.0,27,0.00,,,-99.99,,2013-05-30 22:52:00,
2013-05-30 17:02:00,63.0,29.0,-100.00,West,278,11.0,19.0,27,0.00,,,-99.99,,2013-05-30 23:02:00,
2013-05-30 17:11:00,63.0,31.0,-100.00,West,267,12.0,18.0,29,0.00,,,-99.99,,2013-05-30 23:11:00,
2013-05-30 17:22:00,63.0,31.0,-100.00,West,261,11.0,19.0,29,0.00,,,-99.99,,2013-05-30 23:22:00,
2013-05-30 17:31:00,63.0,31.0,-100.00,West,261,11.0,19.0,29,0.00,,,-99.99,,2013-05-30 23:31:00,
2013-05-30 17:41:00,64.0,29.0,-100.00,WSW,254,7.0,11.0,27,0.00,,,-99.99,,2013-05-30 23:41:00,
2013-05-30 17:52:00,64.0,29.0,-100.00,WSW,254,7.0,11.0,27,0.00,,,-99.99,,2013-05-30 23:52:00,
2013-05-30 18:01:00,64.0,29.0,-100.00,WSW,254,7.0,11.0,27,0.00,,,-99.99,,2013-05-31 00:01:00,
2013-05-30 18:11:00,63.0,30.0,-100.00,WNW,282,13.0,23.0,29,0.00,,,-99.99,,2013-05-31 00:11:00,
2013-05-30 18:21:00,63.0,31.0,-100.00,West,270,9.0,15.0,29,0.00,,,-99.99,,2013-05-31 00:21:00,
2013-05-30 18:32:00,63.0,31.0,-100.00,West,270,9.0,15.0,29,0.00,,,-99.99,,2013-05-31 00:32:00,
2013-05-30 18:42:00,63.0,31.0,-100.00,West,270,9.0,15.0,29,0.00,,,-99.99,,2013-05-31 00:42:00,
2013-05-30 18:52:00,63.0,29.0,-100.00,West,272,11.0,15.0,28,0.00,,,-99.99,,2013-05-31 00:52:00,
2013-05-30 19:01:00,63.0,29.0,-100.00,West,272,11.0,15.0,28,0.00,,,-99.99,,2013-05-31 01:01:00,
2013-05-30 19:12:00,63.0,27.0,-100.00,West,271,7.0,12.0,25,0.00,,,-99.99,,2013-05-31 01:12:00,
2013-05-30 19:21:00,63.0,27.0,-100.00,West,271,7.0,12.0,25,0.00,,,-99.99,,2013-05-31 01:21:00,
2013-05-30 19:31:00,63.0,27.0,-100.00,West,271,7.0,12.0,25,0.00,,,-99.99,,2013-05-31 01:31:00,
2013-05-30 19:42:00,62.0,25.0,-100.00,West,264,7.0,13.0,24,0.00,,,-99.99,,2013-05-31 01:42:00,
2013-05-30 19:52:00,62.0,27.0,-100.00,West,261,11.0,21.0,26,0.00,,,-99.99,,2013-05-31 01:52:00,
2013-05-30 20:02:00,62.0,27.0,-100.00,West,261,11.0,21.0,26,0.00,,,-99.99,,2013-05-31 02:02:00,
2013-05-30 20:11:00,61.0,27.0,-100.00,West,268,13.0,19.0,27,0.00,,,-99.99,,2013-05-31 02:11:00,
2013-05-30 20:21:00,61.0,27.0,-100.00,West,268,13.0,19.0,27,0.00,,,-99.99,,2013-05-31 02:21:00,
2013-05-30 20:31:00,61.0,27.0,-100.00,West,268,13.0,19.0,27,0.00,,,-99.99,,2013-05-31 02:31:00,
2013-05-30 20:41:00,61.0,28.0,-100.00,West,271,10.0,19.0,28,0.00,,,-99.99,,2013-05-31 02:41:00,
2013-05-30 20:52:00,59.0,26.0,-100.00,West,263,7.0,17.0,28,0.00,,,-99.99,,2013-05-31 02:52:00,
2013-05-30 21:01:00,59.0,26.0,-100.00,West,263,7.0,17.0,28,0.00,,,-99.99,,2013-05-31 03:01:00,
2013-05-30 21:11:00,59.0,26.0,-100.00,West,263,7.0,17.0,28,0.00,,,-99.99,,2013-05-31 03:11:00,
2013-05-30 21:21:00,59.0,24.0,-100.00,West,260,9.0,17.0,26,0.00,,,-99.99,,2013-05-31 03:21:00,
2013-05-30 21:33:00,59.0,24.0,-100.00,West,260,9.0,17.0,26,0.00,,,-99.99,,2013-05-31 03:33:00,
2013-05-30 21:43:00,57.0,25.0,-100.00,WSW,258,7.0,11.0,29,0.00,,,-99.99,,2013-05-31 03:43:00,
2013-05-30 21:53:00,56.0,25.0,-100.00,WSW,258,5.0,8.0,30,0.00,,,-99.99,,2013-05-31 03:53:00,
2013-05-30 22:02:00,56.0,25.0,-100.00,WSW,258,5.0,8.0,30,0.00,,,-99.99,,2013-05-31 04:02:00,
2013-05-30 22:12:00,56.0,26.0,-100.00,WSW,251,5.0,11.0,32,0.00,,,-99.99,,2013-05-31 04:12:00,
2013-05-30 22:22:00,56.0,26.0,-100.00,WSW,251,5.0,11.0,32,0.00,,,-99.99,,2013-05-31 04:22:00,
2013-05-30 22:32:00,56.0,26.0,-100.00,WSW,251,5.0,11.0,32,0.00,,,-99.99,,2013-05-31 04:32:00,
2013-05-30 22:42:00,56.0,26.0,-100.00,WSW,251,5.0,11.0,32,0.00,,,-99.99,,2013-05-31 04:42:00,
2013-05-30 22:53:00,55.0,27.0,-100.00,WSW,248,4.0,8.0,34,0.00,,,-99.99,,2013-05-31 04:53:00,
2013-05-30 23:02:00,55.0,27.0,-100.00,WSW,248,4.0,8.0,34,0.00,,,-99.99,,2013-05-31 05:02:00,
2013-05-30 23:12:00,54.0,28.0,-100.00,WSW,246,5.0,13.0,36,0.00,,,-99.99,,2013-05-31 05:12:00,
2013-05-30 23:22:00,54.0,28.0,-100.00,WSW,246,5.0,13.0,36,0.00,,,-99.99,,2013-05-31 05:22:00,
2013-05-30 23:31:00,54.0,28.0,-100.00,WSW,246,5.0,13.0,36,0.00,,,-99.99,,2013-05-31 05:31:00,
2013-05-30 23:42:00,54.0,28.0,-100.00,WSW,253,6.0,10.0,37,0.00,,,-99.99,,2013-05-31 05:42:00,
2013-05-30 23:52:00,54.0,28.0,-100.00,WSW,253,6.0,10.0,37,0.00,,,-99.99,,2013-05-31 05:52:00,